Terminal Aerodrome Forecast
Issued by NWS

Home | Current Version | Previous Version | Text Only | Print | Product List | Glossary On
Versions: 1 2 3 4 5 6 7 8 9 10 11 12 13 14 15 16 17 18 19 20 21 22 23 24 25 26 27
000
FTUS42 KMFL 271140
TAFOPF
TAF
KOPF 271140Z 2712/2812 07004KT P6SM VCSH FEW027 SCT080 SCT250
     FM271400 11012G17KT P6SM VCSH SCT030 SCT250
     FM280300 10007KT P6SM FEW020 SCT250=

USA.gov is the U.S. government's official web portal to all federal, state and local government web resources and services.